createdAt,value
2022-10-18T00:00:09.894Z,88.07
2022-10-18T00:05:32.722Z,88.06
2022-10-18T00:10:35.419Z,88.15
2022-10-18T00:15:38.247Z,88.03
2022-10-18T00:20:40.885Z,88.03
2022-10-18T00:25:43.555Z,88.15
2022-10-18T00:30:46.353Z,88.35
2022-10-18T00:35:49.094Z,87.87
2022-10-18T00:40:51.753Z,87.95
2022-10-18T00:45:54.476Z,87.89
2022-10-18T00:50:57.520Z,88.09
2022-10-18T00:56:00.262Z,88.16
2022-10-18T01:01:02.964Z,88.30
2022-10-18T01:06:05.981Z,88.01
2022-10-18T01:12:00.801Z,88.27
2022-10-18T01:17:29.290Z,88.18
2022-10-18T01:22:36.587Z,88.47
2022-10-18T01:28:04.784Z,88.52
2022-10-18T01:33:40.703Z,88.26
2022-10-18T01:38:43.536Z,88.66
2022-10-18T01:43:46.905Z,88.54
2022-10-18T01:48:49.741Z,88.64
2022-10-18T01:53:52.564Z,88.38
2022-10-18T01:59:33.320Z,88.49
2022-10-18T02:04:51.436Z,88.29
2022-10-18T02:10:01.742Z,88.44
2022-10-18T02:15:05.231Z,88.28
2022-10-18T02:20:09.876Z,88.15
2022-10-18T02:25:21.255Z,88.28
2022-10-18T02:30:30.239Z,88.31
2022-10-18T02:35:36.699Z,88.27
2022-10-18T02:40:39.656Z,88.29
2022-10-18T02:45:42.393Z,88.00
2022-10-18T02:50:45.063Z,88.07
2022-10-18T02:55:47.744Z,87.87
2022-10-18T03:00:51.050Z,87.75
2022-10-18T03:05:53.683Z,87.45
2022-10-18T03:10:56.354Z,87.66
2022-10-18T03:15:59.095Z,87.45
2022-10-18T03:21:09.854Z,87.12
2022-10-18T03:26:13.675Z,86.97
2022-10-18T03:31:16.491Z,86.89
2022-10-18T03:36:19.164Z,87.03
2022-10-18T03:41:21.821Z,87.39
2022-10-18T03:46:24.557Z,87.68
2022-10-18T03:51:27.316Z,87.61
2022-10-18T03:56:29.971Z,87.63
2022-10-18T04:01:33.053Z,87.64
2022-10-18T04:06:35.805Z,87.92
2022-10-18T04:11:38.485Z,87.63
2022-10-18T04:16:41.277Z,87.87
2022-10-18T04:21:45.327Z,88.04
2022-10-18T04:26:48.066Z,88.31
2022-10-18T04:31:50.699Z,88.17
2022-10-18T04:36:56.632Z,88.04
2022-10-18T04:41:59.326Z,88.07
2022-10-18T04:47:01.979Z,88.10
2022-10-18T04:52:04.927Z,87.87
2022-10-18T04:57:12.127Z,87.85
2022-10-18T05:02:14.891Z,87.64
2022-10-18T05:07:18.004Z,87.70
2022-10-18T05:12:20.674Z,87.90
2022-10-18T05:17:23.350Z,88.23
2022-10-18T05:22:26.108Z,88.38
2022-10-18T05:27:29.254Z,88.33
2022-10-18T05:32:32.084Z,88.60
2022-10-18T05:37:35.440Z,88.53
2022-10-18T05:42:38.919Z,88.55
2022-10-18T05:47:41.725Z,88.63
2022-10-18T05:52:44.413Z,88.33
2022-10-18T05:57:50.630Z,88.70
2022-10-18T06:02:55.246Z,88.92
2022-10-18T06:08:00.871Z,89.17
2022-10-18T06:13:03.529Z,89.25
2022-10-18T06:18:06.722Z,89.01
2022-10-18T06:23:10.378Z,88.82
2022-10-18T06:28:13.346Z,88.58
2022-10-18T06:33:16.397Z,88.48
2022-10-18T06:38:19.109Z,88.28
2022-10-18T06:43:22.374Z,88.31
2022-10-18T06:48:26.049Z,87.96
2022-10-18T06:53:36.256Z,87.59
2022-10-18T06:58:42.190Z,87.33
2022-10-18T07:03:46.102Z,87.49
2022-10-18T07:08:49.769Z,86.97
2022-10-18T07:14:00.351Z,86.41
2022-10-18T07:19:03.360Z,86.52
2022-10-18T07:24:07.243Z,86.26
2022-10-18T07:29:11.660Z,86.05
2022-10-18T07:34:14.428Z,85.85
2022-10-18T07:39:17.113Z,85.45
2022-10-18T07:44:19.880Z,84.84
2022-10-18T07:49:22.637Z,83.93
2022-10-18T07:54:25.288Z,82.91
2022-10-18T07:59:27.987Z,82.04
2022-10-18T08:04:30.669Z,80.69
2022-10-18T08:09:33.333Z,80.09
2022-10-18T08:14:36.170Z,78.73
2022-10-18T08:19:44.654Z,78.83
2022-10-18T08:24:55.668Z,76.91
2022-10-18T08:29:59.883Z,75.59
2022-10-18T08:35:04.532Z,75.28
2022-10-18T08:40:13.395Z,74.61
2022-10-18T08:45:30.020Z,74.44
2022-10-18T08:50:39.296Z,73.60
2022-10-18T08:55:52.607Z,73.42
2022-10-18T09:01:49.776Z,72.07
2022-10-18T09:07:53.848Z,72.47
2022-10-18T09:13:21.523Z,69.47
2022-10-18T09:18:52.270Z,69.77
2022-10-18T09:24:38.623Z,68.78
2022-10-18T09:30:08.372Z,68.94
2022-10-18T09:35:21.870Z,67.90
2022-10-18T09:40:28.270Z,68.30
2022-10-18T09:45:37.833Z,68.10
2022-10-18T09:50:44.577Z,67.77
2022-10-18T09:56:26.202Z,67.57
2022-10-18T10:01:30.526Z,67.71
2022-10-18T10:06:38.932Z,68.09
2022-10-18T10:11:47.423Z,68.32
2022-10-18T10:16:59.273Z,67.88
2022-10-18T10:22:12.992Z,66.81
2022-10-18T10:27:29.640Z,67.22
2022-10-18T10:32:46.643Z,66.08
2022-10-18T10:37:53.428Z,65.02
2022-10-18T10:43:18.270Z,63.07
2022-10-18T10:48:33.633Z,63.46
2022-10-18T10:54:02.974Z,63.40
2022-10-18T10:59:17.667Z,63.49
2022-10-18T11:04:26.444Z,63.08
2022-10-18T11:10:10.904Z,62.86
2022-10-18T11:15:36.660Z,61.54
2022-10-18T11:20:48.217Z,61.43
2022-10-18T11:26:12.507Z,61.44
2022-10-18T11:31:28.274Z,61.54
2022-10-18T11:36:54.637Z,61.70
2022-10-18T11:42:16.131Z,60.33
2022-10-18T11:48:05.939Z,60.20
2022-10-18T11:53:59.349Z,60.97
2022-10-18T11:59:26.781Z,60.81
2022-10-18T12:04:48.997Z,60.46
2022-10-18T12:10:01.260Z,59.83
2022-10-18T12:15:13.846Z,60.37
2022-10-18T12:20:37.070Z,59.42
2022-10-18T12:25:43.563Z,59.70
2022-10-18T12:31:06.403Z,60.15
2022-10-18T12:36:29.069Z,59.59
2022-10-18T12:41:33.971Z,58.36
2022-10-18T12:46:46.987Z,58.51
2022-10-18T12:51:55.022Z,59.46
2022-10-18T12:56:59.572Z,58.28
2022-10-18T13:02:05.436Z,59.12
2022-10-18T13:07:08.313Z,59.67
2022-10-18T13:12:13.818Z,60.14
2022-10-18T13:17:41.489Z,60.50
2022-10-18T13:23:11.849Z,60.87
2022-10-18T13:28:21.478Z,60.99
2022-10-18T13:33:51.913Z,61.59
2022-10-18T13:39:04.911Z,62.58
2022-10-18T13:44:30.462Z,63.13
2022-10-18T13:49:39.191Z,63.44
2022-10-18T13:55:16.402Z,63.55
2022-10-18T14:00:30.097Z,64.07
2022-10-18T14:06:26.768Z,64.53
2022-10-18T14:11:37.241Z,65.04
2022-10-18T14:17:01.102Z,65.07
2022-10-18T14:22:19.246Z,65.50
2022-10-18T14:27:26.719Z,65.80
2022-10-18T14:32:30.558Z,66.15
2022-10-18T14:37:40.845Z,66.64
2022-10-18T14:42:48.408Z,66.90
2022-10-18T14:47:52.213Z,67.07
2022-10-18T14:52:54.836Z,67.47
2022-10-18T14:57:58.602Z,67.95
2022-10-18T15:03:03.771Z,68.58
2022-10-18T15:08:06.692Z,69.41
2022-10-18T15:13:16.435Z,70.30
2022-10-18T15:18:25.591Z,71.09
2022-10-18T15:23:31.289Z,71.96
2022-10-18T15:28:51.053Z,72.48
2022-10-18T15:33:55.552Z,72.91
2022-10-18T15:39:16.744Z,74.06
2022-10-18T15:44:28.011Z,75.33
2022-10-18T15:49:56.231Z,75.38
2022-10-18T15:55:02.000Z,76.23
2022-10-18T16:00:07.678Z,76.54
2022-10-18T16:05:16.693Z,77.45
2022-10-18T16:10:19.442Z,82.04
2022-10-18T16:15:22.080Z,83.30
2022-10-18T16:20:25.113Z,85.80
2022-10-18T16:25:27.851Z,87.76
2022-10-18T16:30:30.623Z,89.19
2022-10-18T16:35:35.628Z,90.22
2022-10-18T16:40:41.139Z,90.93
2022-10-18T16:45:44.417Z,89.76
2022-10-18T16:50:47.911Z,90.29
2022-10-18T16:56:18.409Z,90.33
2022-10-18T17:01:22.438Z,90.69
2022-10-18T17:06:28.260Z,92.28
2022-10-18T17:11:31.052Z,91.93
2022-10-18T17:16:35.220Z,92.29
2022-10-18T17:21:37.960Z,93.29
2022-10-18T17:26:42.518Z,95.11
2022-10-18T17:31:45.228Z,95.22
2022-10-18T17:36:47.974Z,95.65
2022-10-18T17:41:50.988Z,95.45
2022-10-18T17:46:54.122Z,96.27
2022-10-18T17:51:57.118Z,95.29
2022-10-18T17:56:59.814Z,94.41
2022-10-18T18:02:02.553Z,94.49
2022-10-18T18:07:05.215Z,94.81
2022-10-18T18:12:07.830Z,95.46
2022-10-18T18:17:10.503Z,96.18
2022-10-18T18:22:14.153Z,95.10
2022-10-18T18:27:16.786Z,95.07
2022-10-18T18:32:19.507Z,95.02
2022-10-18T18:37:22.309Z,95.14
2022-10-18T18:42:25.106Z,94.85
2022-10-18T18:47:28.158Z,94.63
2022-10-18T18:52:31.205Z,94.47
2022-10-18T18:57:34.352Z,93.98
2022-10-18T19:02:37.236Z,94.06
2022-10-18T19:07:39.946Z,94.21
2022-10-18T19:12:42.681Z,94.89
2022-10-18T19:17:45.438Z,95.91
2022-10-18T19:22:48.215Z,96.61
2022-10-18T19:27:50.915Z,96.95
2022-10-18T19:33:01.136Z,96.29
2022-10-18T19:38:06.192Z,96.25
2022-10-18T19:43:08.855Z,95.99
2022-10-18T19:48:13.520Z,95.82
2022-10-18T19:53:24.765Z,95.51
2022-10-18T19:59:07.151Z,95.45
2022-10-18T20:04:10.679Z,95.28
2022-10-18T20:09:19.397Z,94.95
2022-10-18T20:14:24.302Z,95.02
2022-10-18T20:19:27.056Z,95.09
2022-10-18T20:24:41.115Z,95.24
2022-10-18T20:29:47.150Z,95.36
2022-10-18T20:34:52.890Z,95.51
2022-10-18T20:39:55.749Z,95.46
2022-10-18T20:44:59.441Z,95.40
2022-10-18T20:50:05.568Z,95.43
2022-10-18T20:55:13.130Z,95.39
2022-10-18T21:00:21.543Z,95.32
2022-10-18T21:05:24.608Z,95.81
2022-10-18T21:10:27.435Z,95.96
2022-10-18T21:15:33.216Z,96.29
2022-10-18T21:20:36.682Z,96.49
2022-10-18T21:25:48.247Z,96.04
2022-10-18T21:43:13.088Z,96.76
2022-10-18T21:48:56.531Z,96.44
2022-10-18T22:55:07.469Z,96.30
2022-10-18T23:01:35.890Z,96.53
2022-10-18T23:07:19.204Z,96.90
2022-10-18T23:12:22.199Z,96.76
2022-10-18T23:19:06.009Z,96.54
2022-10-18T23:24:08.892Z,96.51
2022-10-18T23:29:11.803Z,96.47
2022-10-18T23:34:15.305Z,96.06
2022-10-18T23:53:42.457Z,95.88
